This is the latest recevied weather packets stored in our database for station/object DB0PDF-L4. If no packets are shown the sender has not sent any weather packets the latest 1 day(s).
| Time | Temp. | Humidity | Pressure | Rain* | Wind** | Luminosity | Snow |
|---|---|---|---|---|---|---|---|
| 1778082462 | 12.78° C | 58% | 1000 hPa | - | - | - | - |
| 1778081561 | 12.78° C | 58% | 1000 hPa | - | - | - | - |
| 1778080660 | 12.78° C | 58% | 1000 hPa | - | - | - | - |
| 1778079759 | 12.78° C | 58% | 1000 hPa | - | - | - | - |
| 1778073451 | 12.22° C | 59% | 1000 hPa | - | - | - | - |
| 1778072550 | 12.22° C | 60% | 1000 hPa | - | - | - | - |
| 1778070748 | 11.67° C | 59% | 1000 hPa | - | - | - | - |
| 1778066242 | 12.22° C | 55% | 999 hPa | - | - | - | - |
| 1778065341 | 12.78° C | 55% | 999 hPa | - | - | - | - |
| 1778064440 | 12.78° C | 54% | 999 hPa | - | - | - | - |
| 1778063539 | 12.78° C | 53% | 999 hPa | - | - | - | - |
| 1778062638 | 13.33° C | 53% | 999 hPa | - | - | - | - |
| 1778058132 | 12.78° C | 51% | 999 hPa | - | - | - | - |
| 1778056330 | 13.33° C | 49% | 999 hPa | - | - | - | - |
| 1778054528 | 13.89° C | 50% | 998 hPa | - | - | - | - |
| 1778053627 | 13.33° C | 51% | 998 hPa | - | - | - | - |
| 1778051824 | 13.33° C | 51% | 998 hPa | - | - | - | - |
| 1778048220 | 11.67° C | 57% | 998 hPa | - | - | - | - |
| 1778047319 | 11.11° C | 57% | 998 hPa | - | - | - | - |
| 1778046418 | 11.11° C | 57% | 998 hPa | - | - | - | - |
| 1778045517 | 11.11° C | 56% | 998 hPa | - | - | - | - |
| 1778041912 | 11.67° C | 56% | 998 hPa | - | - | - | - |
| 1778041011 | 11.67° C | 56% | 998 hPa | - | - | - | - |
| 1778040110 | 11.67° C | 57% | 998 hPa | - | - | - | - |
| 1778039209 | 11.67° C | 56% | 998 hPa | - | - | - | - |
* Rain since midnight (hover to see other rain measurements)
** Current wind speed in m/s (hover to see current wind gust speed)